Time;durP1;ratioP1;P1;durP2;ratioP2;P2;SDS_P1;SDS_P2;PMS_P1;PMS_P2;Temp;Humidity;BMP_temperature;BMP_pressure;BME280_temperature;BME280_humidity;BME280_pressure;Samples;Min_cycle;Max_cycle;Signal;HPM_P1;HPM_P2
2021/11/26 00:01:16;;;;;;;4.93;0.80;;;;;;;6.69;94.14;100674.19;5121416;27;20402;-37
2021/11/26 00:03:44;;;;;;;4.47;0.90;;;;;;;6.70;93.51;100680.56;5118911;27;20075;-33
2021/11/26 00:06:11;;;;;;;7.57;0.77;;;;;;;6.72;93.47;100675.56;5123435;27;20063;-33
2021/11/26 00:08:39;;;;;;;7.38;1.10;;;;;;;6.73;93.50;100680.00;5126400;27;20069;-35
2021/11/26 00:11:07;;;;;;;9.60;1.48;;;;;;;6.76;94.94;100676.69;5121595;27;20054;-34
2021/11/26 00:13:38;;;;;;;7.43;0.90;;;;;;;6.74;96.36;100665.03;5121532;27;20402;-33
2021/11/26 00:16:08;;;;;;;6.63;1.02;;;;;;;6.68;97.16;100671.69;5124712;27;20050;-31
2021/11/26 00:18:42;;;;;;;6.88;0.90;;;;;;;6.63;98.36;100666.13;5123213;27;20443;-41
2021/11/26 00:21:10;;;;;;;4.50;0.68;;;;;;;6.58;99.35;100658.66;5124220;27;20048;-34
2021/11/26 00:23:38;;;;;;;10.35;1.27;;;;;;;6.54;100.00;100650.06;5122819;27;20134;-32
2021/11/26 00:26:06;;;;;;;8.52;1.02;;;;;;;6.52;100.00;100634.81;5120702;27;20508;-37
2021/11/26 00:28:34;;;;;;;3.90;0.60;;;;;;;6.49;100.00;100635.38;5124704;27;20086;-32
2021/11/26 00:31:02;;;;;;;4.25;0.60;;;;;;;6.47;100.00;100620.94;5124959;27;20039;-34
2021/11/26 00:33:29;;;;;;;1.45;0.43;;;;;;;6.43;100.00;100620.66;5116596;27;20039;-40
2021/11/26 00:35:59;;;;;;;4.40;0.50;;;;;;;6.41;100.00;100616.50;5125612;27;20051;-35
2021/11/26 00:38:27;;;;;;;7.78;0.60;;;;;;;6.39;100.00;100619.59;5116423;27;20046;-37
2021/11/26 00:40:55;;;;;;;2.70;0.60;;;;;;;6.37;99.91;100613.50;5122186;27;20418;-31
2021/11/26 00:43:22;;;;;;;2.20;0.40;;;;;;;6.37;99.81;100610.72;5128710;27;20374;-40
2021/11/26 00:45:50;;;;;;;3.30;0.45;;;;;;;6.36;100.00;100609.06;5120442;27;20053;-37
2021/11/26 00:48:18;;;;;;;4.47;1.00;;;;;;;6.36;100.00;100608.22;5117552;27;20086;-36
2021/11/26 00:50:46;;;;;;;3.85;0.70;;;;;;;6.35;100.00;100612.09;5125652;27;20043;-34
2021/11/26 00:53:16;;;;;;;3.92;0.65;;;;;;;6.33;100.00;100597.69;5125365;27;20050;-34
2021/11/26 00:55:43;;;;;;;4.85;0.90;;;;;;;6.32;100.00;100590.47;5119431;27;20049;-38
2021/11/26 00:58:11;;;;;;;7.25;0.70;;;;;;;6.30;100.00;100587.16;5119556;27;20129;-35
2021/11/26 01:00:39;;;;;;;7.43;0.70;;;;;;;6.29;100.00;100585.50;5125434;27;20054;-37
2021/11/26 01:03:07;;;;;;;4.95;0.77;;;;;;;6.25;100.00;100578.84;5122894;27;20138;-33
2021/11/26 01:05:35;;;;;;;2.42;0.50;;;;;;;6.22;100.00;100578.28;5118298;27;20490;-31
2021/11/26 01:08:03;;;;;;;4.60;0.70;;;;;;;6.21;100.00;100576.63;5123124;27;20052;-39
2021/11/26 01:10:33;;;;;;;3.15;0.40;;;;;;;6.21;100.00;100562.75;5123674;27;20067;-37
2021/11/26 01:13:00;;;;;;;4.45;0.50;;;;;;;6.21;100.00;100556.38;5120569;27;20517;-35
2021/11/26 01:15:32;;;;;;;3.08;0.50;;;;;;;6.21;100.00;100556.38;5121039;27;20047;-32
2021/11/26 01:18:00;;;;;;;3.22;0.50;;;;;;;6.18;100.00;100543.94;5124091;27;20062;-35
2021/11/26 01:20:31;;;;;;;2.95;0.43;;;;;;;6.17;100.00;100542.28;5121046;27;20065;-38
2021/11/26 01:22:59;;;;;;;2.45;0.20;;;;;;;6.18;100.00;100543.13;5118155;27;20450;-34
2021/11/26 01:25:28;;;;;;;5.65;0.70;;;;;;;6.18;100.00;100538.41;5123571;27;20043;-35
2021/11/26 01:27:57;;;;;;;5.82;0.80;;;;;;;6.16;100.00;100539.78;5123861;27;20135;-36
2021/11/26 01:30:29;;;;;;;7.43;1.13;;;;;;;6.13;100.00;100532.88;5118750;27;20039;-33
2021/11/26 01:32:59;;;;;;;6.70;0.77;;;;;;;6.09;100.00;100528.16;5124141;27;20030;-35
2021/11/26 01:35:27;;;;;;;7.03;1.25;;;;;;;6.07;100.00;100528.44;5127333;27;20039;-37
2021/11/26 01:37:55;;;;;;;11.57;1.20;;;;;;;6.09;100.00;100517.06;5119275;27;20052;-36
2021/11/26 01:40:23;;;;;;;6.38;1.20;;;;;;;6.12;100.00;100516.53;5127575;27;20043;-30
2021/11/26 01:42:54;;;;;;;8.82;1.05;;;;;;;6.15;100.00;100511.25;5120639;27;20485;-35
2021/11/26 01:45:24;;;;;;;6.82;1.00;;;;;;;6.18;100.00;100501.56;5115706;27;20462;-32
2021/11/26 01:47:53;;;;;;;4.78;1.00;;;;;;;6.18;100.00;100501.56;5123691;27;20051;-33
2021/11/26 01:50:23;;;;;;;4.80;0.90;;;;;;;6.18;100.00;100505.16;5125712;27;20055;-32
2021/11/26 01:52:51;;;;;;;7.10;1.00;;;;;;;6.20;100.00;100488.22;5116875;28;20525;-33
2021/11/26 01:55:20;;;;;;;5.72;1.27;;;;;;;6.21;100.00;100487.13;5117973;27;20319;-32
2021/11/26 01:57:48;;;;;;;5.82;0.90;;;;;;;6.19;100.00;100472.75;5124673;28;20047;-36
2021/11/26 02:00:22;;;;;;;6.53;0.98;;;;;;;6.18;99.96;100471.09;5123405;28;20050;-36
2021/11/26 02:02:52;;;;;;;9.32;0.90;;;;;;;6.14;98.94;100470.81;5123818;28;20137;-33
2021/11/26 02:05:20;;;;;;;4.18;0.75;;;;;;;6.15;98.45;100466.09;5123184;28;20047;-34
2021/11/26 02:07:48;;;;;;;11.50;1.08;;;;;;;6.15;98.12;100463.34;5125578;28;20139;-33
2021/11/26 02:10:16;;;;;;;10.07;0.82;;;;;;;6.17;98.16;100455.56;5120794;27;20094;-33
2021/11/26 02:12:45;;;;;;;4.90;0.70;;;;;;;6.18;97.86;100452.53;5122401;27;20043;-36
2021/11/26 02:15:18;;;;;;;;;;;;;;;6.14;97.62;100448.66;5127353;27;20052;-33
2021/11/26 02:17:46;;;;;;;7.45;0.73;;;;;;;6.12;97.64;100433.41;5126546;27;20399;-35
2021/11/26 02:20:17;;;;;;;5.45;0.90;;;;;;;6.16;97.83;100428.97;5124725;27;20401;-36
2021/11/26 02:22:44;;;;;;;6.05;0.77;;;;;;;6.18;97.70;100429.53;5124710;27;20126;-34
2021/11/26 02:25:13;;;;;;;11.40;1.05;;;;;;;6.20;98.54;100422.56;5126248;27;20043;-37
2021/11/26 02:27:41;;;;;;;8.35;0.98;;;;;;;6.22;98.89;100419.53;5124835;27;20104;-33
2021/11/26 02:30:15;;;;;;;5.38;0.77;;;;;;;6.22;98.96;100397.38;5122503;27;20134;-33
2021/11/26 02:32:44;;;;;;;5.85;0.70;;;;;;;6.19;99.35;100398.75;5130228;27;20096;-36
2021/11/26 02:35:12;;;;;;;4.10;0.40;;;;;;;6.14;98.75;100389.66;5122730;27;20058;-36
2021/11/26 02:37:42;;;;;;;3.45;0.52;;;;;;;6.09;98.45;100379.41;5127994;27;20047;-40
2021/11/26 02:40:12;;;;;;;4.50;0.50;;;;;;;6.06;98.83;100377.19;5127530;27;20058;-32
2021/11/26 02:42:40;;;;;;;4.43;0.60;;;;;;;6.03;98.64;100366.66;5120154;27;20424;-33
2021/11/26 02:45:11;;;;;;;7.93;1.10;;;;;;;6.02;98.94;100353.94;5123285;27;20104;-34
2021/11/26 02:47:39;;;;;;;8.82;0.90;;;;;;;6.01;98.93;100355.03;5131032;27;20047;-36
2021/11/26 02:50:10;;;;;;;5.15;0.88;;;;;;;6.02;99.47;100337.31;5124496;27;20055;-31
2021/11/26 02:52:39;;;;;;;4.68;0.80;;;;;;;6.05;99.63;100333.16;5118462;27;20039;-34
2021/11/26 02:55:12;;;;;;;7.68;1.00;;;;;;;6.09;99.63;100332.31;5126469;27;20043;-37
2021/11/26 02:57:40;;;;;;;6.43;0.90;;;;;;;6.12;100.00;100319.84;5130566;27;20058;-37
2021/11/26 03:00:10;;;;;;;4.28;0.40;;;;;;;6.13;100.00;100315.97;5121211;27;20046;-38
2021/11/26 03:02:37;;;;;;;6.82;1.40;;;;;;;6.13;100.00;100310.44;5120690;27;20059;-33
2021/11/26 03:05:06;;;;;;;8.05;0.75;;;;;;;6.12;100.00;100308.78;5127676;27;20050;-37
2021/11/26 03:07:34;;;;;;;5.63;0.85;;;;;;;6.12;99.86;100300.47;5113916;27;20417;-36
2021/11/26 03:10:03;;;;;;;3.90;0.70;;;;;;;6.12;99.98;100292.16;5127471;27;20138;-34
2021/11/26 03:12:33;;;;;;;7.22;0.98;;;;;;;6.12;99.70;100286.59;5125638;27;20043;-32
2021/11/26 03:15:01;;;;;;;7.07;0.90;;;;;;;6.12;100.00;100283.84;5128809;27;20489;-36
2021/11/26 03:17:29;;;;;;;9.50;1.60;;;;;;;6.12;99.68;100278.31;5124499;27;20039;-32
2021/11/26 03:19:57;;;;;;;7.65;1.20;;;;;;;6.13;99.61;100277.19;5121118;27;20047;-34
2021/11/26 03:22:25;;;;;;;9.70;1.35;;;;;;;6.15;99.18;100270.25;5124907;27;20032;-33
2021/11/26 03:24:53;;;;;;;6.18;1.25;;;;;;;6.16;98.71;100257.25;5125005;27;20054;-38
2021/11/26 03:27:20;;;;;;;9.30;1.45;;;;;;;6.14;98.11;100251.16;5122802;27;20117;-33
2021/11/26 03:29:49;;;;;;;8.05;1.25;;;;;;;6.13;97.56;100244.78;5123797;27;20490;-30
2021/11/26 03:32:17;;;;;;;8.57;1.13;;;;;;;6.11;97.24;100241.47;5126665;27;20566;-34
2021/11/26 03:34:45;;;;;;;7.78;1.02;;;;;;;6.10;96.36;100231.50;5121799;27;20043;-29
2021/11/26 03:37:13;;;;;;;7.05;1.13;;;;;;;6.09;96.25;100227.06;5121466;27;20058;-30
2021/11/26 03:39:42;;;;;;;9.88;1.30;;;;;;;6.12;95.96;100218.19;5127738;27;20087;-34
2021/11/26 03:42:10;;;;;;;8.73;1.25;;;;;;;6.14;95.25;100217.91;5125758;27;20050;-34
2021/11/26 03:44:38;;;;;;;5.85;1.10;;;;;;;6.15;95.23;100208.50;5118187;27;20054;-33
2021/11/26 03:47:07;;;;;;;9.52;1.13;;;;;;;6.16;94.70;100204.59;5123366;27;20048;-35
2021/11/26 03:49:35;;;;;;;9.35;1.25;;;;;;;6.15;94.32;100200.19;5129094;27;20555;-34
2021/11/26 03:52:04;;;;;;;10.80;1.48;;;;;;;6.17;93.80;100189.63;5122508;27;20070;-32
2021/11/26 03:54:31;;;;;;;9.15;1.48;;;;;;;6.18;93.40;100180.22;5118572;27;20509;-35
2021/11/26 03:56:59;;;;;;;10.10;1.30;;;;;;;6.22;93.84;100172.97;5126613;27;20374;-32
2021/11/26 03:59:27;;;;;;;6.78;1.15;;;;;;;6.25;93.88;100168.78;5126610;27;20139;-37
2021/11/26 04:01:54;;;;;;;11.55;1.83;;;;;;;6.28;93.94;100163.50;5119567;27;20035;-33
2021/11/26 04:04:24;;;;;;;7.43;1.38;;;;;;;6.30;93.32;100155.75;5121423;27;20044;-32
2021/11/26 04:06:51;;;;;;;11.85;1.60;;;;;;;6.30;90.63;100150.19;5126959;27;20051;-33
2021/11/26 04:09:19;;;;;;;9.68;1.48;;;;;;;6.34;89.61;100145.75;5123512;27;20055;-35
2021/11/26 04:11:47;;;;;;;9.35;1.20;;;;;;;6.35;87.94;100136.31;5119137;27;20058;-37
2021/11/26 04:14:35;;;;;;;10.88;1.42;;;;;;;6.38;86.85;100127.44;5124659;27;20047;-34
2021/11/26 04:17:05;;;;;;;8.27;1.48;;;;;;;6.40;86.88;100127.94;5127220;27;20046;-36
2021/11/26 04:19:34;;;;;;;10.23;1.30;;;;;;;6.40;85.06;100110.47;5123115;27;20047;-38
2021/11/26 04:22:02;;;;;;;9.90;1.40;;;;;;;6.39;84.91;100106.91;5120041;27;20405;-41
2021/11/26 04:24:30;;;;;;;8.02;1.05;;;;;;;6.38;83.82;100096.13;5122347;27;20413;-34
2021/11/26 04:26:58;;;;;;;12.13;1.27;;;;;;;6.35;82.32;100100.28;5123473;27;20051;-35
2021/11/26 04:29:26;;;;;;;8.95;0.95;;;;;;;6.35;81.97;100094.75;5122082;27;20066;-31
2021/11/26 04:31:54;;;;;;;5.72;1.25;;;;;;;6.34;80.51;100083.97;5122344;27;20130;-36
2021/11/26 04:34:21;;;;;;;7.82;1.13;;;;;;;6.35;80.01;100075.34;5118809;27;20409;-39
2021/11/26 04:36:50;;;;;;;9.40;1.20;;;;;;;6.35;79.75;100067.03;5122508;27;20106;-34
2021/11/26 04:39:18;;;;;;;7.25;1.27;;;;;;;6.34;80.09;100062.63;5125276;27;20039;-32
2021/11/26 04:41:46;;;;;;;10.30;1.70;;;;;;;6.36;80.60;100054.03;5119206;27;20043;-34
2021/11/26 04:44:14;;;;;;;7.75;1.25;;;;;;;6.39;80.87;100050.66;5119597;27;20047;-36
2021/11/26 04:46:42;;;;;;;7.00;1.25;;;;;;;6.38;80.92;100046.25;5117015;27;20047;-38
2021/11/26 04:49:10;;;;;;;6.38;1.45;;;;;;;6.40;81.17;100032.91;5122360;27;20166;-32
2021/11/26 04:51:37;;;;;;;9.20;2.20;;;;;;;6.39;81.22;100026.56;5127701;27;20540;-38
2021/11/26 04:54:06;;;;;;;9.00;1.50;;;;;;;6.38;81.60;100024.91;5120422;27;20412;-34
2021/11/26 04:56:34;;;;;;;9.02;1.85;;;;;;;6.38;80.84;100019.38;5117643;27;20049;-30
2021/11/26 04:59:02;;;;;;;7.85;1.65;;;;;;;6.38;81.57;100018.53;5125154;27;20044;-34
2021/11/26 05:01:30;;;;;;;10.88;1.75;;;;;;;6.37;80.50;100003.84;5125028;27;20043;-31
2021/11/26 05:03:58;;;;;;;9.55;1.58;;;;;;;6.37;80.73;99997.50;5118825;27;20039;-39
2021/11/26 05:06:26;;;;;;;7.00;1.40;;;;;;;6.32;79.29;99990.03;5119599;27;20043;-32
2021/11/26 05:08:54;;;;;;;7.43;1.60;;;;;;;6.34;79.32;99985.03;5125651;27;20055;-34
2021/11/26 05:11:23;;;;;;;6.40;1.45;;;;;;;6.35;79.35;99985.88;5123194;27;20488;-32
2021/11/26 05:13:51;;;;;;;7.75;1.25;;;;;;;6.35;79.23;99978.38;5117549;27;20040;-33
2021/11/26 05:16:19;;;;;;;9.43;1.40;;;;;;;6.32;78.57;99975.38;5123492;27;20039;-35
2021/11/26 05:18:47;;;;;;;8.10;1.35;;;;;;;6.27;75.25;99972.63;5123403;27;20429;-32
2021/11/26 05:21:14;;;;;;;5.97;1.00;;;;;;;6.26;75.33;99968.22;5119887;27;20050;-36
2021/11/26 05:23:42;;;;;;;5.50;1.00;;;;;;;6.25;75.56;99956.31;5126986;27;20485;-35
2021/11/26 05:26:10;;;;;;;5.25;0.95;;;;;;;6.23;74.99;99955.78;5117464;27;20485;-35
2021/11/26 05:28:39;;;;;;;7.35;1.40;;;;;;;6.20;74.16;99951.63;5121313;27;20044;-35
2021/11/26 05:31:07;;;;;;;6.85;1.10;;;;;;;6.22;74.74;99943.03;5124294;27;20135;-38
2021/11/26 05:33:35;;;;;;;6.85;1.40;;;;;;;6.22;75.55;99929.19;5114938;27;20073;-32
2021/11/26 05:36:03;;;;;;;10.07;1.65;;;;;;;6.22;76.27;99931.94;5124027;27;20516;-33
2021/11/26 05:38:31;;;;;;;7.13;1.10;;;;;;;6.22;76.64;99923.66;5116899;27;20053;-35
2021/11/26 05:40:59;;;;;;;7.55;1.20;;;;;;;6.21;76.76;99917.28;5119870;27;20040;-36
2021/11/26 05:43:27;;;;;;;6.53;1.27;;;;;;;6.20;77.49;99898.19;5127162;27;20532;-37
2021/11/26 05:45:56;;;;;;;7.10;1.30;;;;;;;6.20;76.39;99906.50;5120309;27;20489;-31
2021/11/26 05:48:24;;;;;;;7.20;1.10;;;;;;;6.22;77.05;99885.69;5115247;27;20038;-40
2021/11/26 05:50:53;;;;;;;5.65;1.00;;;;;;;6.22;76.21;99887.63;5118846;27;20505;-37
2021/11/26 05:53:20;;;;;;;6.70;1.38;;;;;;;6.25;76.00;99873.19;5117696;27;20039;-37
2021/11/26 05:55:48;;;;;;;7.78;1.10;;;;;;;6.25;76.62;99880.69;5123968;27;20031;-30
2021/11/26 05:58:16;;;;;;;8.35;1.45;;;;;;;6.28;76.95;99875.38;5123524;27;20406;-39
2021/11/26 06:00:44;;;;;;;6.78;1.10;;;;;;;6.30;77.39;99859.28;5124647;28;20055;-32
2021/11/26 06:03:13;;;;;;;8.68;1.40;;;;;;;6.33;77.54;99850.41;5122421;28;20417;-38
2021/11/26 06:05:41;;;;;;;6.22;1.33;;;;;;;6.33;77.79;99844.84;5126180;28;20058;-34
2021/11/26 06:08:09;;;;;;;5.70;1.13;;;;;;;6.36;77.84;99843.44;5120825;28;20496;-33
2021/11/26 06:10:36;;;;;;;7.72;1.52;;;;;;;6.39;78.18;99831.78;5117754;28;20069;-35
2021/11/26 06:13:04;;;;;;;9.13;1.92;;;;;;;6.39;77.73;99824.28;5122726;28;20051;-41
2021/11/26 06:15:32;;;;;;;4.97;0.98;;;;;;;6.43;78.51;99810.63;5121335;28;20134;-34
2021/11/26 06:18:00;;;;;;;7.95;1.08;;;;;;;6.46;79.09;99810.88;5123062;28;20061;-36
2021/11/26 06:20:29;;;;;;;8.32;1.20;;;;;;;6.52;79.89;99800.53;5121190;28;20043;-32
2021/11/26 06:22:57;;;;;;;6.75;1.25;;;;;;;6.51;79.77;99791.41;5118367;27;20039;-35
2021/11/26 06:25:25;;;;;;;6.13;1.30;;;;;;;6.55;80.46;99794.41;5123039;28;20048;-35
2021/11/26 06:27:53;;;;;;;7.05;1.50;;;;;;;6.54;80.80;99776.97;5123539;28;20054;-32
2021/11/26 06:30:23;;;;;;;7.53;1.23;;;;;;;6.59;81.31;99769.69;5117030;28;20043;-31
2021/11/26 06:32:51;;;;;;;10.27;1.13;;;;;;;6.61;80.77;99762.69;5122959;28;20045;-34
2021/11/26 06:35:21;;;;;;;7.75;1.30;;;;;;;6.65;80.47;99754.63;5127241;28;20059;-33
2021/11/26 06:37:51;;;;;;;4.88;1.10;;;;;;;6.67;81.32;99744.06;5119874;28;20048;-32
2021/11/26 06:40:20;;;;;;;4.90;1.33;;;;;;;6.68;82.14;99751.25;5126871;28;20385;-34
2021/11/26 06:42:48;;;;;;;6.40;1.40;;;;;;;6.65;82.49;99746.31;5120581;28;20050;-38
2021/11/26 06:45:17;;;;;;;5.80;1.30;;;;;;;6.64;81.47;99736.34;5114635;28;20039;-36
2021/11/26 06:47:47;;;;;;;5.50;1.80;;;;;;;6.72;81.84;99741.22;5115035;28;20082;-33
2021/11/26 06:50:17;;;;;;;6.40;0.95;;;;;;;6.75;82.16;99732.31;5123771;28;20043;-30
2021/11/26 06:52:44;;;;;;;7.63;1.10;;;;;;;6.75;82.68;99713.72;5116907;27;20049;-36
2021/11/26 06:55:14;;;;;;;8.27;1.48;;;;;;;6.77;82.83;99705.09;5118870;28;20043;-30
2021/11/26 06:57:43;;;;;;;7.22;1.33;;;;;;;6.78;82.86;99709.53;5125921;27;20043;-36
2021/11/26 07:00:13;;;;;;;7.75;1.30;;;;;;;6.78;82.31;99701.19;5126535;27;20122;-35
2021/11/26 07:02:41;;;;;;;7.88;1.30;;;;;;;6.80;81.77;99696.16;5120850;27;20422;-36
2021/11/26 07:05:10;;;;;;;7.68;1.20;;;;;;;6.82;81.36;99691.13;5123600;27;20097;-34
2021/11/26 07:07:38;;;;;;;6.15;1.27;;;;;;;6.84;81.02;99677.78;5127967;27;20049;-36
2021/11/26 07:10:07;;;;;;;9.38;1.65;;;;;;;6.86;81.39;99670.81;5123077;27;20120;-36
2021/11/26 07:12:38;;;;;;;7.88;1.20;;;;;;;6.89;82.55;99659.13;5121763;27;20406;-40
2021/11/26 07:15:07;;;;;;;4.13;0.80;;;;;;;6.84;79.67;99659.19;5125888;27;20047;-34
2021/11/26 07:17:35;;;;;;;4.65;0.75;;;;;;;6.83;79.04;99656.72;5124779;27;20059;-31
2021/11/26 07:20:04;;;;;;;8.55;1.30;;;;;;;6.86;80.09;99642.25;5125028;27;20048;-39
2021/11/26 07:22:32;;;;;;;5.88;0.85;;;;;;;6.90;80.20;99632.22;5124070;27;20107;-36
2021/11/26 07:24:59;;;;;;;7.57;1.55;;;;;;;6.91;81.06;99620.81;5121098;27;20047;-34
2021/11/26 07:27:27;;;;;;;8.57;1.33;;;;;;;6.94;82.57;99627.72;5124225;27;20513;-32
2021/11/26 07:29:56;;;;;;;9.70;1.30;;;;;;;6.96;81.79;99619.09;5125061;27;20051;-37
2021/11/26 07:32:24;;;;;;;6.70;1.30;;;;;;;6.99;83.37;99615.72;5117468;27;20046;-32
2021/11/26 07:34:52;;;;;;;9.70;1.50;;;;;;;7.04;84.31;99607.28;5124141;27;20051;-29
2021/11/26 07:37:20;;;;;;;5.38;1.00;;;;;;;7.03;83.43;99602.84;5116025;27;20104;-35
2021/11/26 07:39:48;;;;;;;7.45;1.02;;;;;;;7.05;83.10;99606.97;5119338;27;20047;-31
2021/11/26 07:42:16;;;;;;;6.63;1.20;;;;;;;7.11;83.90;99593.81;5127546;27;20054;-38
2021/11/26 07:44:44;;;;;;;12.43;2.22;;;;;;;7.13;84.17;99581.28;5120558;27;20051;-36
2021/11/26 07:47:16;;;;;;;8.15;1.25;;;;;;;7.16;83.63;99574.31;5115449;27;20047;-31
2021/11/26 07:49:46;;;;;;;8.18;1.50;;;;;;;7.18;83.62;99572.88;5125791;27;20067;-34
2021/11/26 07:52:14;;;;;;;9.88;1.40;;;;;;;7.15;82.08;99598.47;5125808;27;20055;-30
2021/11/26 07:54:42;;;;;;;9.85;1.13;;;;;;;7.20;80.63;99550.34;5118841;27;20392;-41
2021/11/26 07:57:11;;;;;;;10.13;1.30;;;;;;;7.23;81.84;99547.78;5120327;27;20055;-35
2021/11/26 07:59:39;;;;;;;9.93;1.27;;;;;;;7.23;81.92;99544.19;5125464;27;20724;-38
2021/11/26 08:02:07;;;;;;;5.32;1.30;;;;;;;7.28;81.78;99544.09;5123119;27;20508;-37
2021/11/26 08:04:36;;;;;;;13.13;1.60;;;;;;;7.30;82.99;99539.06;5116570;27;20055;-32
2021/11/26 08:07:04;;;;;;;9.90;1.52;;;;;;;7.31;82.78;99531.56;5121525;27;20047;-33
2021/11/26 08:09:32;;;;;;;9.93;1.60;;;;;;;7.31;82.61;99515.72;5118789;27;20504;-35
2021/11/26 08:11:59;;;;;;;12.15;1.70;;;;;;;7.32;82.67;99522.09;5123378;27;20067;-34
2021/11/26 08:14:27;;;;;;;7.90;1.20;;;;;;;7.30;79.97;99493.84;5122515;27;20513;-37
2021/11/26 08:16:56;;;;;;;10.98;1.83;;;;;;;7.35;81.81;99504.84;5120106;27;20473;-31
2021/11/26 08:19:25;;;;;;;6.47;1.55;;;;;;;7.37;82.76;99497.03;5122549;27;20131;-34
2021/11/26 08:21:56;;;;;;;5.63;1.20;;;;;;;7.37;82.17;99483.16;5124065;27;20391;-30
2021/11/26 08:24:25;;;;;;;7.13;1.33;;;;;;;7.38;82.18;99482.84;5119946;27;20049;-28
2021/11/26 08:26:53;;;;;;;9.55;1.25;;;;;;;7.43;82.10;99462.44;5119098;27;20561;-34
2021/11/26 08:29:21;;;;;;;9.65;1.38;;;;;;;7.43;83.12;99465.22;5125114;27;20390;-34
2021/11/26 08:31:49;;;;;;;11.30;1.65;;;;;;;7.42;82.65;99458.03;5124190;27;20054;-30
2021/11/26 08:34:17;;;;;;;6.95;1.67;;;;;;;7.47;83.88;99452.38;5123405;27;20148;-31
2021/11/26 08:36:44;;;;;;;8.82;1.20;;;;;;;7.50;82.69;99452.56;5121711;27;20465;-35
2021/11/26 08:39:13;;;;;;;10.38;1.55;;;;;;;7.52;81.33;99443.94;5115666;27;20047;-33
2021/11/26 08:41:42;;;;;;;10.13;1.80;;;;;;;7.54;82.50;99436.13;5123271;27;20089;-37
2021/11/26 08:44:09;;;;;;;11.57;1.30;;;;;;;7.60;83.09;99441.22;5126360;27;20043;-35
2021/11/26 08:46:37;;;;;;;9.60;1.40;;;;;;;7.61;82.62;99428.16;5119323;27;20049;-37
2021/11/26 08:49:05;;;;;;;10.30;1.45;;;;;;;7.63;83.16;99416.75;5118359;27;20513;-30
2021/11/26 08:51:35;;;;;;;8.75;1.63;;;;;;;7.67;83.72;99413.03;5123978;27;20080;-34
2021/11/26 08:54:03;;;;;;;11.77;1.60;;;;;;;7.68;83.63;99403.56;5123934;27;20568;-35
2021/11/26 08:56:33;;;;;;;13.20;1.80;;;;;;;7.69;82.88;99380.22;5117879;27;20073;-32
2021/11/26 08:59:02;;;;;;;7.50;1.50;;;;;;;7.73;83.73;99394.28;5120539;27;20524;-36
2021/11/26 09:01:31;;;;;;;7.78;1.40;;;;;;;7.76;83.17;99375.03;5125788;27;20520;-32
2021/11/26 09:03:59;;;;;;;11.18;1.60;;;;;;;7.80;83.25;99370.47;5110643;28;20057;-33
2021/11/26 09:06:27;;;;;;;12.57;1.63;;;;;;;7.81;81.69;99361.00;5124255;27;20587;-33
2021/11/26 09:08:55;;;;;;;9.25;1.60;;;;;;;7.83;82.07;99350.41;5119172;27;20149;-31
2021/11/26 09:11:23;;;;;;;10.30;2.13;;;;;;;7.86;82.08;99354.50;5120879;27;20048;-34
2021/11/26 09:13:53;;;;;;;7.93;1.20;;;;;;;7.87;81.08;99345.84;5123206;27;20042;-33
2021/11/26 09:16:20;;;;;;;12.30;1.58;;;;;;;7.87;80.18;99345.84;5122145;27;20070;-31
2021/11/26 09:18:49;;;;;;;9.30;1.80;;;;;;;7.91;81.56;99326.59;5118672;27;20062;-32
2021/11/26 09:21:17;;;;;;;9.20;1.63;;;;;;;7.90;81.08;99334.13;5123606;27;20036;-34
2021/11/26 09:23:48;;;;;;;8.90;1.45;;;;;;;7.87;81.53;99329.19;5124376;27;20077;-32
2021/11/26 09:26:16;;;;;;;11.05;1.48;;;;;;;7.86;83.27;99312.84;5116333;27;20046;-37
2021/11/26 09:28:43;;;;;;;9.05;1.67;;;;;;;7.78;84.40;99333.91;5119210;27;20520;-32
2021/11/26 09:31:12;;;;;;;7.25;1.30;;;;;;;7.70;86.24;99290.25;5115458;27;20090;-32
2021/11/26 09:33:40;;;;;;;9.43;1.77;;;;;;;7.63;88.55;99300.97;5114298;27;20043;-35
2021/11/26 09:36:10;;;;;;;14.13;1.77;;;;;;;7.55;90.61;99301.75;5127667;27;20035;-33
2021/11/26 09:38:40;;;;;;;12.07;1.60;;;;;;;7.49;92.24;99280.81;5120504;27;20039;-34
2021/11/26 09:41:11;;;;;;;9.27;1.80;;;;;;;7.44;93.37;99264.28;5115409;27;20036;-36
2021/11/26 09:44:00;;;;;;;10.38;1.75;;;;;;;7.43;93.73;99257.09;5121952;27;20374;-32
2021/11/26 09:46:33;;;;;;;10.82;1.98;;;;;;;7.47;93.62;99244.22;5115236;27;20047;-33
2021/11/26 09:49:00;;;;;;;;;;;;;;;7.40;96.38;99249.41;5122885;27;20506;-34
2021/11/26 09:51:28;;;;;;;10.98;1.90;;;;;;;7.38;97.10;99248.91;5127154;27;19926;-34
2021/11/26 09:53:57;;;;;;;10.25;1.60;;;;;;;7.38;96.82;99229.50;5117837;27;20037;-31
2021/11/26 09:56:25;;;;;;;9.00;1.50;;;;;;;7.38;96.93;99224.78;5117936;27;20058;-33
2021/11/26 09:58:52;;;;;;;8.98;1.67;;;;;;;7.39;98.06;99217.25;5124736;27;20047;-32
2021/11/26 10:01:20;;;;;;;9.80;1.33;;;;;;;7.35;99.74;99202.38;5123035;28;20044;-34
2021/11/26 10:03:52;;;;;;;16.20;1.77;;;;;;;7.29;100.00;99198.91;5124579;28;20142;-30
2021/11/26 10:06:22;;;;;;;13.13;2.08;;;;;;;7.34;100.00;99192.41;5122958;28;20409;-35
2021/11/26 10:08:58;;;;;;;10.55;1.50;;;;;;;7.34;100.00;99189.66;5124870;27;20049;-36
2021/11/26 10:11:28;;;;;;;11.27;2.03;;;;;;;7.31;100.00;99159.75;5122538;28;20080;-31
2021/11/26 10:13:56;;;;;;;11.50;1.80;;;;;;;7.27;100.00;99170.66;5116685;28;20040;-30
2021/11/26 10:16:46;;;;;;;12.43;1.65;;;;;;;7.29;100.00;99167.56;5122580;28;20039;-33
2021/11/26 10:19:16;;;;;;;8.90;1.52;;;;;;;7.30;100.00;99149.78;5117122;28;20051;-36
2021/11/26 10:21:44;;;;;;;15.27;2.00;;;;;;;7.33;100.00;99140.84;5120708;27;20055;-31
2021/11/26 10:24:18;;;;;;;15.32;1.88;;;;;;;7.34;100.00;99121.09;5125118;28;20031;-32
2021/11/26 10:26:54;;;;;;;9.68;2.03;;;;;;;7.37;100.00;99123.25;5120741;28;20051;-36
2021/11/26 10:29:33;;;;;;;10.77;1.45;;;;;;;7.35;100.00;99133.00;5116165;27;20039;-33
2021/11/26 10:32:10;;;;;;;10.60;1.67;;;;;;;7.33;100.00;99110.31;5122527;27;20051;-33
2021/11/26 10:34:41;;;;;;;10.02;1.63;;;;;;;7.33;100.00;99102.00;5120660;27;20066;-36
2021/11/26 10:37:20;;;;;;;13.13;1.98;;;;;;;7.36;100.00;99095.81;5124955;27;20043;-32
2021/11/26 10:39:48;;;;;;;13.13;1.92;;;;;;;7.32;100.00;99105.91;5132226;27;20049;-30
2021/11/26 10:42:28;;;;;;;8.55;1.52;;;;;;;7.32;100.00;99076.22;5124318;27;20047;-31
2021/11/26 10:45:01;;;;;;;15.70;1.90;;;;;;;7.31;100.00;99071.78;5120683;27;20051;-36
2021/11/26 10:47:43;;;;;;;11.50;2.00;;;;;;;7.29;100.00;99074.06;5114875;28;20046;-34
2021/11/26 10:58:34;;;;;;;14.98;1.90;;;;;;;7.13;100.00;99026.53;5121410;27;20052;-34
2021/11/26 11:01:05;;;;;;;11.68;1.90;;;;;;;7.18;100.00;99018.06;5128193;27;20047;-34
2021/11/26 11:03:33;;;;;;;10.68;1.60;;;;;;;7.18;100.00;98995.06;5127608;27;20053;-32
2021/11/26 11:06:03;;;;;;;9.88;1.35;;;;;;;7.15;100.00;98992.94;5120972;27;20046;-36
2021/11/26 11:08:31;;;;;;;9.00;1.88;;;;;;;7.18;100.00;98986.75;5122741;27;20047;-34
2021/11/26 11:11:05;;;;;;;11.77;1.42;;;;;;;7.22;100.00;98973.84;5127744;27;20578;-36
2021/11/26 11:13:33;;;;;;;12.90;1.65;;;;;;;7.24;100.00;98955.75;5126289;27;20051;-35
2021/11/26 11:16:07;;;;;;;8.65;2.03;;;;;;;7.29;100.00;98942.88;5119589;27;20048;-37
2021/11/26 11:18:36;;;;;;;12.05;2.00;;;;;;;7.30;100.00;98953.63;5124036;27;20054;-33
2021/11/26 11:21:07;;;;;;;9.07;1.77;;;;;;;7.26;100.00;98936.81;5127701;27;20051;-33
2021/11/26 11:23:35;;;;;;;15.75;1.90;;;;;;;7.24;100.00;98925.22;5123032;27;20047;-32
2021/11/26 11:26:05;;;;;;;10.27;1.70;;;;;;;7.23;100.00;98920.81;5121451;27;20509;-35
2021/11/26 11:28:33;;;;;;;12.45;1.80;;;;;;;7.22;100.00;98913.63;5125404;27;20051;-29
2021/11/26 11:31:02;;;;;;;13.18;2.15;;;;;;;7.24;100.00;98905.00;5124819;27;20047;-37
2021/11/26 11:33:30;;;;;;;12.25;1.92;;;;;;;7.25;100.00;98889.97;5120022;27;20130;-32
2021/11/26 11:36:01;;;;;;;8.80;1.60;;;;;;;7.26;100.00;98880.50;5123998;27;20043;-32
2021/11/26 11:38:30;;;;;;;13.73;1.50;;;;;;;7.22;100.00;98869.25;5126267;27;20131;-29
2021/11/26 11:41:03;;;;;;;12.77;1.85;;;;;;;7.18;100.00;98879.38;5121696;27;20043;-30
2021/11/26 11:43:42;;;;;;;15.20;2.22;;;;;;;7.17;100.00;98874.16;5120932;27;20410;-32
2021/11/26 11:46:12;;;;;;;8.13;1.50;;;;;;;7.13;100.00;98849.03;5124519;27;20053;-28
2021/11/26 11:48:45;;;;;;;11.90;1.60;;;;;;;7.13;100.00;98843.50;5126246;27;20051;-34
2021/11/26 11:51:23;;;;;;;9.75;1.90;;;;;;;7.14;100.00;98841.53;5121717;27;20040;-32